Aérodrome :
LOGIN :

S'inscrire | Disclaimer

   EN    FR    IT 

 










Légende :    VFR   VFR Marginal   IFR   IFR Intensif   IFR Très Intensif
Visi : 
Plafond : 
>= 8 km
>= 3000ft
5 à 8 km
1000 à 3000 ft
1500m à 5 km
500 à 1000 ft
800 à 1500m
200 à 500 ft
< 800m
< 200 ft
Symboles :   Orages  Brouillard  Fortes neiges  Fortes précipitations  Vent > 20 kt
SIGMETs :   Divers  Orages  Givrage  Turbulence  Onde Orograph.  Cendres Volcan.







- Altitude de l'aérodrome : 1079 ft


ETIK - Illesheim Air Base

DERNIER METAR :
  • 190356Z AUTO 22007KT 9999 CLR 05/01 A3008 RMK AO2 SLP192 T00490010 $

METARs EXPIRÉS :
  • 190256Z AUTO 00000KT 9999 CLR M01/M01 A3008 RMK AO2 SLP196 T10091009 58003 $
  • 190156Z AUTO 21003KT 9999 CLR M02/M02 A3008 RMK AO2 SLP197 T10161016 $

TAF TAF ETIK
Valide du 18 à 22h jusqu'au 20 à 04h UTC


182203Z 1822/2004 VRB06KT 9999 SKC QNH3007INS
BECMG 1911/1912 26010G15KT 8000 -RA BKN015 OVC025 620403 QNH3010INS
BECMG 1915/1916 26009KT 9999 NSW BKN010 620304 QNH3010INS
BECMG 1919/1920 26009KT 8000 BR BKN010 QNH3012INS TX07/1911Z TNM05/1904Z
Pas de NOTAMs connus pour ce terrain.



MET'MAP, la Météo Aéronautique d'un coup d'oeil ! - Copyright ORBIFLY Décembre 2007 - Disclaimer

ORBIFLY MET'MAP TEAM :

Programmation & Développement : Alexandra Zaïnal
Conception & Développement : Baudouin d'Aumeries
Co-Programmation & Développement : Marc-Olivier Méhu
Soutien technique & logistique : Manuel Goepfert

Contact : metmap@orbifly.com




SOURCES & CREDITS :

   NOAA